sensor_id;sensor_type;location;lat;lon;timestamp;P1;durP1;ratioP1;P2;durP2;ratioP2
41177;SDS011;26912;54.292;18.574;2022-10-17T00:00:39;2.08;;;1.27;;
41177;SDS011;26912;54.292;18.574;2022-10-17T00:03:25;1.08;;;0.85;;
41177;SDS011;26912;54.292;18.574;2022-10-17T00:05:52;1.30;;;1.20;;
41177;SDS011;26912;54.292;18.574;2022-10-17T00:08:37;1.25;;;1.15;;
41177;SDS011;26912;54.292;18.574;2022-10-17T00:11:07;0.82;;;0.82;;
41177;SDS011;26912;54.292;18.574;2022-10-17T00:13:38;1.60;;;0.98;;
41177;SDS011;26912;54.292;18.574;2022-10-17T00:16:05;1.15;;;1.05;;
41177;SDS011;26912;54.292;18.574;2022-10-17T00:18:32;0.88;;;0.88;;
41177;SDS011;26912;54.292;18.574;2022-10-17T00:20:58;2.50;;;1.25;;
41177;SDS011;26912;54.292;18.574;2022-10-17T00:23:25;0.90;;;0.90;;
41177;SDS011;26912;54.292;18.574;2022-10-17T00:25:58;1.20;;;1.10;;
41177;SDS011;26912;54.292;18.574;2022-10-17T00:28:26;1.38;;;1.02;;
41177;SDS011;26912;54.292;18.574;2022-10-17T00:31:00;6.45;;;2.75;;
41177;SDS011;26912;54.292;18.574;2022-10-17T00:33:28;1.70;;;0.85;;
41177;SDS011;26912;54.292;18.574;2022-10-17T00:36:03;1.02;;;0.80;;
41177;SDS011;26912;54.292;18.574;2022-10-17T00:41:09;0.80;;;0.52;;
41177;SDS011;26912;54.292;18.574;2022-10-17T00:43:57;1.95;;;1.10;;
41177;SDS011;26912;54.292;18.574;2022-10-17T00:46:30;3.63;;;1.13;;
41177;SDS011;26912;54.292;18.574;2022-10-17T00:49:00;3.72;;;1.92;;
41177;SDS011;26912;54.292;18.574;2022-10-17T00:51:33;1.00;;;0.88;;
41177;SDS011;26912;54.292;18.574;2022-10-17T00:54:06;2.17;;;1.25;;
41177;SDS011;26912;54.292;18.574;2022-10-17T00:56:34;1.08;;;1.05;;
41177;SDS011;26912;54.292;18.574;2022-10-17T00:59:01;4.43;;;1.15;;
41177;SDS011;26912;54.292;18.574;2022-10-17T01:01:28;1.52;;;1.10;;
41177;SDS011;26912;54.292;18.574;2022-10-17T01:03:56;0.77;;;0.77;;
41177;SDS011;26912;54.292;18.574;2022-10-17T01:06:23;0.82;;;0.82;;
41177;SDS011;26912;54.292;18.574;2022-10-17T01:08:49;3.13;;;1.30;;
41177;SDS011;26912;54.292;18.574;2022-10-17T01:16:44;1.92;;;1.02;;
41177;SDS011;26912;54.292;18.574;2022-10-17T01:22:00;4.03;;;1.05;;
41177;SDS011;26912;54.292;18.574;2022-10-17T01:29:28;4.03;;;1.30;;
41177;SDS011;26912;54.292;18.574;2022-10-17T01:42:55;0.75;;;0.73;;
41177;SDS011;26912;54.292;18.574;2022-10-17T01:45:31;1.00;;;0.65;;
41177;SDS011;26912;54.292;18.574;2022-10-17T01:48:22;2.22;;;1.77;;
41177;SDS011;26912;54.292;18.574;2022-10-17T01:50:56;0.63;;;0.63;;
41177;SDS011;26912;54.292;18.574;2022-10-17T01:53:29;2.35;;;1.05;;
41177;SDS011;26912;54.292;18.574;2022-10-17T01:55:59;0.95;;;0.90;;
41177;SDS011;26912;54.292;18.574;2022-10-17T01:58:29;0.60;;;0.60;;
41177;SDS011;26912;54.292;18.574;2022-10-17T02:01:18;0.50;;;0.50;;
41177;SDS011;26912;54.292;18.574;2022-10-17T02:03:47;0.40;;;0.40;;
41177;SDS011;26912;54.292;18.574;2022-10-17T02:06:17;0.70;;;0.70;;
41177;SDS011;26912;54.292;18.574;2022-10-17T02:08:45;1.85;;;0.70;;
41177;SDS011;26912;54.292;18.574;2022-10-17T02:11:15;1.27;;;0.77;;
41177;SDS011;26912;54.292;18.574;2022-10-17T02:28:01;3.55;;;1.23;;
41177;SDS011;26912;54.292;18.574;2022-10-17T02:30:44;2.33;;;1.30;;
41177;SDS011;26912;54.292;18.574;2022-10-17T02:33:33;3.40;;;0.95;;
41177;SDS011;26912;54.292;18.574;2022-10-17T02:36:11;3.28;;;1.23;;
41177;SDS011;26912;54.292;18.574;2022-10-17T02:38:41;0.47;;;0.47;;
41177;SDS011;26912;54.292;18.574;2022-10-17T02:41:12;1.10;;;0.88;;
41177;SDS011;26912;54.292;18.574;2022-10-17T02:43:42;0.93;;;0.60;;
41177;SDS011;26912;54.292;18.574;2022-10-17T02:46:12;4.40;;;0.98;;
41177;SDS011;26912;54.292;18.574;2022-10-17T02:54:33;0.40;;;0.40;;
41177;SDS011;26912;54.292;18.574;2022-10-17T02:57:13;0.60;;;0.55;;
41177;SDS011;26912;54.292;18.574;2022-10-17T02:59:46;1.75;;;1.40;;
41177;SDS011;26912;54.292;18.574;2022-10-17T03:02:15;1.02;;;0.77;;
41177;SDS011;26912;54.292;18.574;2022-10-17T03:04:44;1.05;;;0.65;;
41177;SDS011;26912;54.292;18.574;2022-10-17T03:07:12;0.52;;;0.52;;
41177;SDS011;26912;54.292;18.574;2022-10-17T03:09:38;2.92;;;0.95;;
41177;SDS011;26912;54.292;18.574;2022-10-17T03:12:05;0.82;;;0.73;;
41177;SDS011;26912;54.292;18.574;2022-10-17T03:14:32;1.05;;;0.90;;
41177;SDS011;26912;54.292;18.574;2022-10-17T03:16:59;1.25;;;1.23;;
41177;SDS011;26912;54.292;18.574;2022-10-17T03:19:26;0.63;;;0.63;;
41177;SDS011;26912;54.292;18.574;2022-10-17T03:21:53;1.23;;;0.65;;
41177;SDS011;26912;54.292;18.574;2022-10-17T03:24:19;1.85;;;1.42;;
41177;SDS011;26912;54.292;18.574;2022-10-17T03:26:46;1.90;;;0.98;;
41177;SDS011;26912;54.292;18.574;2022-10-17T03:29:12;0.45;;;0.45;;
41177;SDS011;26912;54.292;18.574;2022-10-17T03:31:39;4.30;;;1.08;;
41177;SDS011;26912;54.292;18.574;2022-10-17T03:34:06;0.52;;;0.52;;
41177;SDS011;26912;54.292;18.574;2022-10-17T03:36:33;0.75;;;0.75;;
41177;SDS011;26912;54.292;18.574;2022-10-17T03:39:00;1.55;;;1.45;;
41177;SDS011;26912;54.292;18.574;2022-10-17T03:41:28;5.28;;;1.23;;
41177;SDS011;26912;54.292;18.574;2022-10-17T03:43:54;0.70;;;0.70;;
41177;SDS011;26912;54.292;18.574;2022-10-17T03:46:22;0.40;;;0.40;;
41177;SDS011;26912;54.292;18.574;2022-10-17T03:48:49;0.63;;;0.47;;
41177;SDS011;26912;54.292;18.574;2022-10-17T03:51:15;3.97;;;1.48;;
41177;SDS011;26912;54.292;18.574;2022-10-17T03:53:48;4.63;;;1.58;;
41177;SDS011;26912;54.292;18.574;2022-10-17T03:56:16;0.40;;;0.40;;
41177;SDS011;26912;54.292;18.574;2022-10-17T03:58:53;0.57;;;0.57;;
41177;SDS011;26912;54.292;18.574;2022-10-17T04:01:21;0.50;;;0.50;;
41177;SDS011;26912;54.292;18.574;2022-10-17T04:03:49;0.90;;;0.50;;
41177;SDS011;26912;54.292;18.574;2022-10-17T04:06:20;1.05;;;0.90;;
41177;SDS011;26912;54.292;18.574;2022-10-17T04:08:47;0.85;;;0.85;;
41177;SDS011;26912;54.292;18.574;2022-10-17T04:11:20;1.33;;;1.05;;
41177;SDS011;26912;54.292;18.574;2022-10-17T04:13:51;0.70;;;0.70;;
41177;SDS011;26912;54.292;18.574;2022-10-17T04:16:22;1.38;;;0.70;;
41177;SDS011;26912;54.292;18.574;2022-10-17T04:18:57;2.75;;;1.05;;
41177;SDS011;26912;54.292;18.574;2022-10-17T04:21:27;0.65;;;0.65;;
41177;SDS011;26912;54.292;18.574;2022-10-17T04:23:57;0.45;;;0.40;;
41177;SDS011;26912;54.292;18.574;2022-10-17T04:26:39;1.75;;;1.13;;
41177;SDS011;26912;54.292;18.574;2022-10-17T04:29:06;1.38;;;1.27;;
41177;SDS011;26912;54.292;18.574;2022-10-17T04:31:33;0.68;;;0.65;;
41177;SDS011;26912;54.292;18.574;2022-10-17T04:34:09;1.35;;;1.25;;
41177;SDS011;26912;54.292;18.574;2022-10-17T04:36:39;1.05;;;0.77;;
41177;SDS011;26912;54.292;18.574;2022-10-17T04:39:06;0.85;;;0.55;;
41177;SDS011;26912;54.292;18.574;2022-10-17T04:41:34;1.10;;;0.60;;
41177;SDS011;26912;54.292;18.574;2022-10-17T04:44:01;1.75;;;0.65;;
41177;SDS011;26912;54.292;18.574;2022-10-17T04:46:32;0.73;;;0.50;;
41177;SDS011;26912;54.292;18.574;2022-10-17T04:48:59;1.67;;;0.77;;
41177;SDS011;26912;54.292;18.574;2022-10-17T04:51:26;0.60;;;0.55;;
41177;SDS011;26912;54.292;18.574;2022-10-17T04:54:15;0.52;;;0.52;;
41177;SDS011;26912;54.292;18.574;2022-10-17T04:56:45;2.08;;;1.83;;
41177;SDS011;26912;54.292;18.574;2022-10-17T04:59:13;1.25;;;1.10;;
41177;SDS011;26912;54.292;18.574;2022-10-17T05:01:42;2.38;;;1.83;;
41177;SDS011;26912;54.292;18.574;2022-10-17T05:04:09;2.38;;;1.95;;
41177;SDS011;26912;54.292;18.574;2022-10-17T05:06:36;4.53;;;1.73;;
41177;SDS011;26912;54.292;18.574;2022-10-17T05:09:26;1.88;;;1.77;;
41177;SDS011;26912;54.292;18.574;2022-10-17T05:11:53;3.20;;;1.42;;
41177;SDS011;26912;54.292;18.574;2022-10-17T05:14:20;0.75;;;0.75;;
41177;SDS011;26912;54.292;18.574;2022-10-17T05:16:47;1.85;;;1.33;;
41177;SDS011;26912;54.292;18.574;2022-10-17T05:19:13;1.10;;;1.00;;
41177;SDS011;26912;54.292;18.574;2022-10-17T05:21:45;3.00;;;1.50;;
41177;SDS011;26912;54.292;18.574;2022-10-17T05:24:12;1.13;;;0.88;;
41177;SDS011;26912;54.292;18.574;2022-10-17T05:26:39;0.65;;;0.65;;
41177;SDS011;26912;54.292;18.574;2022-10-17T05:29:06;7.10;;;1.00;;
41177;SDS011;26912;54.292;18.574;2022-10-17T05:31:36;0.80;;;0.80;;
41177;SDS011;26912;54.292;18.574;2022-10-17T05:34:05;1.33;;;0.70;;
41177;SDS011;26912;54.292;18.574;2022-10-17T05:36:32;0.75;;;0.75;;
41177;SDS011;26912;54.292;18.574;2022-10-17T05:39:02;1.40;;;1.15;;
41177;SDS011;26912;54.292;18.574;2022-10-17T05:41:29;0.60;;;0.60;;
41177;SDS011;26912;54.292;18.574;2022-10-17T05:43:57;1.40;;;1.30;;
41177;SDS011;26912;54.292;18.574;2022-10-17T05:46:36;1.83;;;1.23;;
41177;SDS011;26912;54.292;18.574;2022-10-17T05:49:03;2.88;;;1.02;;
41177;SDS011;26912;54.292;18.574;2022-10-17T05:51:31;5.50;;;0.90;;
41177;SDS011;26912;54.292;18.574;2022-10-17T05:54:00;9.82;;;1.17;;
41177;SDS011;26912;54.292;18.574;2022-10-17T05:56:29;0.70;;;0.47;;
41177;SDS011;26912;54.292;18.574;2022-10-17T05:58:56;0.73;;;0.73;;
41177;SDS011;26912;54.292;18.574;2022-10-17T06:01:41;1.20;;;1.13;;
41177;SDS011;26912;54.292;18.574;2022-10-17T06:04:08;3.67;;;1.63;;
41177;SDS011;26912;54.292;18.574;2022-10-17T06:06:36;1.25;;;0.95;;
41177;SDS011;26912;54.292;18.574;2022-10-17T06:09:04;1.17;;;1.08;;
41177;SDS011;26912;54.292;18.574;2022-10-17T06:11:36;1.33;;;0.68;;
41177;SDS011;26912;54.292;18.574;2022-10-17T06:14:02;2.65;;;1.13;;
41177;SDS011;26912;54.292;18.574;2022-10-17T06:16:29;2.25;;;1.33;;
41177;SDS011;26912;54.292;18.574;2022-10-17T06:18:56;3.70;;;0.82;;
41177;SDS011;26912;54.292;18.574;2022-10-17T06:21:24;1.40;;;0.63;;
41177;SDS011;26912;54.292;18.574;2022-10-17T06:24:00;4.00;;;1.23;;
41177;SDS011;26912;54.292;18.574;2022-10-17T06:26:31;12.90;;;1.08;;
41177;SDS011;26912;54.292;18.574;2022-10-17T06:28:57;1.05;;;0.88;;
41177;SDS011;26912;54.292;18.574;2022-10-17T06:31:28;1.00;;;0.90;;
41177;SDS011;26912;54.292;18.574;2022-10-17T06:33:54;2.38;;;1.48;;
41177;SDS011;26912;54.292;18.574;2022-10-17T06:36:22;3.05;;;1.25;;
41177;SDS011;26912;54.292;18.574;2022-10-17T06:38:49;1.48;;;0.68;;
41177;SDS011;26912;54.292;18.574;2022-10-17T06:41:26;0.63;;;0.63;;
41177;SDS011;26912;54.292;18.574;2022-10-17T06:43:53;1.15;;;0.85;;
41177;SDS011;26912;54.292;18.574;2022-10-17T06:46:37;0.63;;;0.63;;
41177;SDS011;26912;54.292;18.574;2022-10-17T06:49:08;1.92;;;0.75;;
41177;SDS011;26912;54.292;18.574;2022-10-17T06:51:58;3.25;;;1.27;;
41177;SDS011;26912;54.292;18.574;2022-10-17T06:54:51;3.97;;;0.70;;
41177;SDS011;26912;54.292;18.574;2022-10-17T06:57:36;2.17;;;1.10;;
41177;SDS011;26912;54.292;18.574;2022-10-17T07:00:21;4.60;;;0.55;;
41177;SDS011;26912;54.292;18.574;2022-10-17T07:02:52;1.33;;;1.00;;
41177;SDS011;26912;54.292;18.574;2022-10-17T07:05:19;1.33;;;1.13;;
41177;SDS011;26912;54.292;18.574;2022-10-17T07:07:46;1.83;;;0.73;;
41177;SDS011;26912;54.292;18.574;2022-10-17T07:10:12;1.00;;;0.90;;
41177;SDS011;26912;54.292;18.574;2022-10-17T07:12:40;1.55;;;0.98;;
41177;SDS011;26912;54.292;18.574;2022-10-17T07:15:07;0.30;;;0.30;;
41177;SDS011;26912;54.292;18.574;2022-10-17T07:17:33;1.25;;;0.60;;
41177;SDS011;26912;54.292;18.574;2022-10-17T07:20:00;5.55;;;0.80;;
41177;SDS011;26912;54.292;18.574;2022-10-17T07:22:29;0.40;;;0.40;;
41177;SDS011;26912;54.292;18.574;2022-10-17T07:24:57;1.40;;;1.00;;
41177;SDS011;26912;54.292;18.574;2022-10-17T07:27:28;0.57;;;0.57;;
41177;SDS011;26912;54.292;18.574;2022-10-17T07:29:54;4.22;;;0.77;;
41177;SDS011;26912;54.292;18.574;2022-10-17T07:32:51;0.65;;;0.55;;
41177;SDS011;26912;54.292;18.574;2022-10-17T07:35:18;1.13;;;0.70;;
41177;SDS011;26912;54.292;18.574;2022-10-17T07:37:44;0.43;;;0.40;;
41177;SDS011;26912;54.292;18.574;2022-10-17T07:40:12;2.45;;;1.00;;
41177;SDS011;26912;54.292;18.574;2022-10-17T07:42:40;1.75;;;0.85;;
41177;SDS011;26912;54.292;18.574;2022-10-17T07:45:06;5.90;;;1.05;;
41177;SDS011;26912;54.292;18.574;2022-10-17T07:47:33;8.75;;;1.05;;
41177;SDS011;26912;54.292;18.574;2022-10-17T07:50:01;1.38;;;0.70;;
41177;SDS011;26912;54.292;18.574;2022-10-17T07:52:29;3.58;;;0.90;;
41177;SDS011;26912;54.292;18.574;2022-10-17T07:54:55;0.50;;;0.50;;
41177;SDS011;26912;54.292;18.574;2022-10-17T07:57:22;3.65;;;0.95;;
41177;SDS011;26912;54.292;18.574;2022-10-17T07:59:48;2.47;;;1.40;;
41177;SDS011;26912;54.292;18.574;2022-10-17T08:02:23;2.17;;;1.25;;
41177;SDS011;26912;54.292;18.574;2022-10-17T08:04:50;3.90;;;1.52;;
41177;SDS011;26912;54.292;18.574;2022-10-17T08:07:18;1.27;;;1.00;;
41177;SDS011;26912;54.292;18.574;2022-10-17T08:09:45;2.08;;;1.20;;
41177;SDS011;26912;54.292;18.574;2022-10-17T08:12:12;2.42;;;1.40;;
41177;SDS011;26912;54.292;18.574;2022-10-17T08:14:40;1.20;;;0.95;;
41177;SDS011;26912;54.292;18.574;2022-10-17T08:17:07;1.27;;;0.88;;
41177;SDS011;26912;54.292;18.574;2022-10-17T08:19:37;0.93;;;0.90;;
41177;SDS011;26912;54.292;18.574;2022-10-17T08:22:05;1.48;;;0.77;;
41177;SDS011;26912;54.292;18.574;2022-10-17T08:24:32;2.65;;;1.63;;
41177;SDS011;26912;54.292;18.574;2022-10-17T08:26:59;1.58;;;1.40;;
41177;SDS011;26912;54.292;18.574;2022-10-17T08:29:26;7.55;;;2.13;;
41177;SDS011;26912;54.292;18.574;2022-10-17T08:31:53;6.78;;;1.95;;
41177;SDS011;26912;54.292;18.574;2022-10-17T08:34:19;9.40;;;1.38;;
41177;SDS011;26912;54.292;18.574;2022-10-17T08:36:46;1.50;;;1.40;;
41177;SDS011;26912;54.292;18.574;2022-10-17T08:39:12;4.07;;;1.50;;
41177;SDS011;26912;54.292;18.574;2022-10-17T08:41:52;3.30;;;1.60;;
41177;SDS011;26912;54.292;18.574;2022-10-17T08:47:33;6.60;;;1.48;;
41177;SDS011;26912;54.292;18.574;2022-10-17T08:50:03;5.43;;;1.90;;
41177;SDS011;26912;54.292;18.574;2022-10-17T08:52:48;3.92;;;1.55;;
41177;SDS011;26912;54.292;18.574;2022-10-17T08:57:54;2.55;;;1.65;;
41177;SDS011;26912;54.292;18.574;2022-10-17T09:00:21;4.90;;;1.50;;
41177;SDS011;26912;54.292;18.574;2022-10-17T09:14:24;2.03;;;1.40;;
41177;SDS011;26912;54.292;18.574;2022-10-17T09:22:46;2.92;;;1.60;;
41177;SDS011;26912;54.292;18.574;2022-10-17T09:25:28;3.05;;;1.92;;
41177;SDS011;26912;54.292;18.574;2022-10-17T09:28:38;2.78;;;1.73;;
41177;SDS011;26912;54.292;18.574;2022-10-17T09:31:08;2.08;;;1.55;;
41177;SDS011;26912;54.292;18.574;2022-10-17T09:34:09;3.60;;;1.73;;
41177;SDS011;26912;54.292;18.574;2022-10-17T09:36:37;14.18;;;2.20;;
41177;SDS011;26912;54.292;18.574;2022-10-17T09:41:59;2.47;;;2.00;;
41177;SDS011;26912;54.292;18.574;2022-10-17T09:44:30;3.25;;;2.00;;
41177;SDS011;26912;54.292;18.574;2022-10-17T09:49:32;9.13;;;2.80;;
41177;SDS011;26912;54.292;18.574;2022-10-17T09:52:05;2.38;;;1.55;;
41177;SDS011;26912;54.292;18.574;2022-10-17T09:54:53;2.20;;;1.75;;
41177;SDS011;26912;54.292;18.574;2022-10-17T10:00:20;2.88;;;2.15;;
41177;SDS011;26912;54.292;18.574;2022-10-17T10:02:48;4.32;;;2.00;;
41177;SDS011;26912;54.292;18.574;2022-10-17T10:05:16;1.92;;;1.83;;
41177;SDS011;26912;54.292;18.574;2022-10-17T10:07:47;2.63;;;1.55;;
41177;SDS011;26912;54.292;18.574;2022-10-17T10:10:29;4.28;;;1.90;;
41177;SDS011;26912;54.292;18.574;2022-10-17T10:13:01;5.95;;;3.05;;
41177;SDS011;26912;54.292;18.574;2022-10-17T10:15:41;4.43;;;2.35;;
41177;SDS011;26912;54.292;18.574;2022-10-17T10:18:25;5.20;;;2.80;;
41177;SDS011;26912;54.292;18.574;2022-10-17T10:21:04;4.68;;;2.50;;
41177;SDS011;26912;54.292;18.574;2022-10-17T10:23:39;4.22;;;2.95;;
41177;SDS011;26912;54.292;18.574;2022-10-17T10:28:50;4.00;;;2.08;;
41177;SDS011;26912;54.292;18.574;2022-10-17T10:34:00;4.75;;;2.83;;
41177;SDS011;26912;54.292;18.574;2022-10-17T10:36:51;7.65;;;2.60;;
41177;SDS011;26912;54.292;18.574;2022-10-17T10:39:31;2.90;;;2.58;;
41177;SDS011;26912;54.292;18.574;2022-10-17T10:42:00;4.55;;;2.97;;
41177;SDS011;26912;54.292;18.574;2022-10-17T10:44:29;2.47;;;2.28;;
41177;SDS011;26912;54.292;18.574;2022-10-17T10:47:07;2.05;;;1.85;;
41177;SDS011;26912;54.292;18.574;2022-10-17T10:49:41;4.80;;;2.47;;
41177;SDS011;26912;54.292;18.574;2022-10-17T10:52:09;2.10;;;1.80;;
41177;SDS011;26912;54.292;18.574;2022-10-17T10:54:52;3.13;;;2.20;;
41177;SDS011;26912;54.292;18.574;2022-10-17T10:57:27;3.45;;;2.08;;
41177;SDS011;26912;54.292;18.574;2022-10-17T11:02:49;8.52;;;2.70;;
41177;SDS011;26912;54.292;18.574;2022-10-17T11:08:39;3.03;;;2.38;;
41177;SDS011;26912;54.292;18.574;2022-10-17T11:11:31;2.97;;;2.08;;
41177;SDS011;26912;54.292;18.574;2022-10-17T11:16:51;4.95;;;2.35;;
41177;SDS011;26912;54.292;18.574;2022-10-17T11:19:37;2.33;;;2.03;;
41177;SDS011;26912;54.292;18.574;2022-10-17T11:22:25;5.28;;;3.25;;
41177;SDS011;26912;54.292;18.574;2022-10-17T11:27:25;3.80;;;3.05;;
41177;SDS011;26912;54.292;18.574;2022-10-17T11:29:54;4.38;;;2.78;;
41177;SDS011;26912;54.292;18.574;2022-10-17T11:32:26;10.32;;;5.82;;
41177;SDS011;26912;54.292;18.574;2022-10-17T11:35:02;5.00;;;4.40;;
41177;SDS011;26912;54.292;18.574;2022-10-17T11:37:38;4.20;;;3.80;;
41177;SDS011;26912;54.292;18.574;2022-10-17T11:40:17;6.85;;;3.25;;
41177;SDS011;26912;54.292;18.574;2022-10-17T11:42:59;5.57;;;2.70;;
41177;SDS011;26912;54.292;18.574;2022-10-17T11:45:32;3.38;;;2.67;;
41177;SDS011;26912;54.292;18.574;2022-10-17T11:48:06;9.55;;;3.90;;
41177;SDS011;26912;54.292;18.574;2022-10-17T11:50:48;7.57;;;3.03;;
41177;SDS011;26912;54.292;18.574;2022-10-17T11:53:26;6.13;;;3.22;;
41177;SDS011;26912;54.292;18.574;2022-10-17T11:55:59;5.13;;;2.85;;
41177;SDS011;26912;54.292;18.574;2022-10-17T11:58:28;5.22;;;3.15;;
41177;SDS011;26912;54.292;18.574;2022-10-17T12:09:20;6.78;;;3.47;;
41177;SDS011;26912;54.292;18.574;2022-10-17T12:14:33;4.75;;;3.50;;
41177;SDS011;26912;54.292;18.574;2022-10-17T12:17:21;6.32;;;2.55;;
41177;SDS011;26912;54.292;18.574;2022-10-17T12:20:36;4.10;;;2.00;;
41177;SDS011;26912;54.292;18.574;2022-10-17T12:25:25;2.72;;;2.50;;
41177;SDS011;26912;54.292;18.574;2022-10-17T12:41:14;3.35;;;2.70;;
41177;SDS011;26912;54.292;18.574;2022-10-17T12:43:48;4.45;;;1.98;;
41177;SDS011;26912;54.292;18.574;2022-10-17T12:54:41;4.40;;;2.42;;
41177;SDS011;26912;54.292;18.574;2022-10-17T13:00:24;4.20;;;2.97;;
41177;SDS011;26912;54.292;18.574;2022-10-17T13:03:02;4.35;;;3.05;;
41177;SDS011;26912;54.292;18.574;2022-10-17T13:05:35;5.30;;;2.90;;
41177;SDS011;26912;54.292;18.574;2022-10-17T13:08:05;7.85;;;2.50;;
41177;SDS011;26912;54.292;18.574;2022-10-17T13:10:38;3.40;;;2.63;;
41177;SDS011;26912;54.292;18.574;2022-10-17T13:13:09;4.18;;;2.45;;
41177;SDS011;26912;54.292;18.574;2022-10-17T13:16:03;6.72;;;3.03;;
41177;SDS011;26912;54.292;18.574;2022-10-17T13:18:29;4.25;;;2.28;;
41177;SDS011;26912;54.292;18.574;2022-10-17T13:21:04;2.90;;;2.25;;
41177;SDS011;26912;54.292;18.574;2022-10-17T13:23:36;10.68;;;2.42;;
41177;SDS011;26912;54.292;18.574;2022-10-17T13:28:38;2.63;;;2.08;;
41177;SDS011;26912;54.292;18.574;2022-10-17T13:31:06;2.33;;;1.83;;
41177;SDS011;26912;54.292;18.574;2022-10-17T13:33:54;6.75;;;2.60;;
41177;SDS011;26912;54.292;18.574;2022-10-17T13:36:22;3.15;;;1.88;;
41177;SDS011;26912;54.292;18.574;2022-10-17T13:38:50;7.47;;;1.90;;
41177;SDS011;26912;54.292;18.574;2022-10-17T13:41:17;2.88;;;1.77;;
41177;SDS011;26912;54.292;18.574;2022-10-17T13:43:55;3.65;;;2.08;;
41177;SDS011;26912;54.292;18.574;2022-10-17T13:46:32;3.22;;;1.70;;
41177;SDS011;26912;54.292;18.574;2022-10-17T13:49:07;2.33;;;1.98;;
41177;SDS011;26912;54.292;18.574;2022-10-17T13:51:47;2.92;;;1.60;;
41177;SDS011;26912;54.292;18.574;2022-10-17T13:56:43;3.90;;;1.98;;
41177;SDS011;26912;54.292;18.574;2022-10-17T13:59:30;2.10;;;1.83;;
41177;SDS011;26912;54.292;18.574;2022-10-17T14:02:05;3.15;;;2.25;;
41177;SDS011;26912;54.292;18.574;2022-10-17T14:04:58;2.35;;;1.50;;
41177;SDS011;26912;54.292;18.574;2022-10-17T14:07:36;5.95;;;2.80;;
41177;SDS011;26912;54.292;18.574;2022-10-17T14:10:20;3.53;;;2.38;;
41177;SDS011;26912;54.292;18.574;2022-10-17T14:12:50;3.25;;;2.35;;
41177;SDS011;26912;54.292;18.574;2022-10-17T14:15:18;4.18;;;2.90;;
41177;SDS011;26912;54.292;18.574;2022-10-17T14:17:52;8.32;;;2.67;;
41177;SDS011;26912;54.292;18.574;2022-10-17T14:20:23;3.58;;;2.17;;
41177;SDS011;26912;54.292;18.574;2022-10-17T14:22:53;6.70;;;2.95;;
41177;SDS011;26912;54.292;18.574;2022-10-17T14:28:02;2.38;;;2.17;;
41177;SDS011;26912;54.292;18.574;2022-10-17T14:30:36;4.00;;;2.67;;
41177;SDS011;26912;54.292;18.574;2022-10-17T14:33:11;3.13;;;2.67;;
41177;SDS011;26912;54.292;18.574;2022-10-17T14:35:50;8.15;;;3.25;;
41177;SDS011;26912;54.292;18.574;2022-10-17T14:38:18;4.70;;;2.50;;
41177;SDS011;26912;54.292;18.574;2022-10-17T14:43:27;5.50;;;2.58;;
41177;SDS011;26912;54.292;18.574;2022-10-17T14:45:56;5.55;;;2.67;;
41177;SDS011;26912;54.292;18.574;2022-10-17T14:48:24;5.43;;;3.17;;
41177;SDS011;26912;54.292;18.574;2022-10-17T14:53:42;3.65;;;2.38;;
41177;SDS011;26912;54.292;18.574;2022-10-17T14:56:33;5.57;;;2.65;;
41177;SDS011;26912;54.292;18.574;2022-10-17T14:59:00;4.63;;;3.47;;
41177;SDS011;26912;54.292;18.574;2022-10-17T15:01:27;3.17;;;2.35;;
41177;SDS011;26912;54.292;18.574;2022-10-17T15:03:54;2.85;;;2.25;;
41177;SDS011;26912;54.292;18.574;2022-10-17T15:06:26;4.65;;;3.28;;
41177;SDS011;26912;54.292;18.574;2022-10-17T15:08:58;2.78;;;2.25;;
41177;SDS011;26912;54.292;18.574;2022-10-17T15:11:25;7.50;;;3.08;;
41177;SDS011;26912;54.292;18.574;2022-10-17T15:13:52;7.15;;;3.45;;
41177;SDS011;26912;54.292;18.574;2022-10-17T15:16:24;4.22;;;2.92;;
41177;SDS011;26912;54.292;18.574;2022-10-17T15:18:55;4.25;;;3.00;;
41177;SDS011;26912;54.292;18.574;2022-10-17T15:21:22;4.50;;;3.40;;
41177;SDS011;26912;54.292;18.574;2022-10-17T15:23:50;7.35;;;3.42;;
41177;SDS011;26912;54.292;18.574;2022-10-17T15:26:18;6.90;;;3.28;;
41177;SDS011;26912;54.292;18.574;2022-10-17T15:28:49;4.13;;;2.83;;
41177;SDS011;26912;54.292;18.574;2022-10-17T15:31:19;4.50;;;3.40;;
41177;SDS011;26912;54.292;18.574;2022-10-17T15:33:47;8.38;;;2.90;;
41177;SDS011;26912;54.292;18.574;2022-10-17T15:36:27;5.90;;;3.33;;
41177;SDS011;26912;54.292;18.574;2022-10-17T15:38:56;7.25;;;3.08;;
41177;SDS011;26912;54.292;18.574;2022-10-17T15:41:25;4.40;;;3.28;;
41177;SDS011;26912;54.292;18.574;2022-10-17T15:43:53;3.13;;;2.47;;
41177;SDS011;26912;54.292;18.574;2022-10-17T15:46:21;13.77;;;3.03;;
41177;SDS011;26912;54.292;18.574;2022-10-17T15:48:51;4.55;;;2.80;;
41177;SDS011;26912;54.292;18.574;2022-10-17T15:51:18;4.07;;;3.15;;
41177;SDS011;26912;54.292;18.574;2022-10-17T15:53:45;4.60;;;3.13;;
41177;SDS011;26912;54.292;18.574;2022-10-17T15:56:21;4.70;;;2.80;;
41177;SDS011;26912;54.292;18.574;2022-10-17T15:58:51;5.70;;;3.10;;
41177;SDS011;26912;54.292;18.574;2022-10-17T16:01:19;7.10;;;3.83;;
41177;SDS011;26912;54.292;18.574;2022-10-17T16:03:48;4.90;;;2.83;;
41177;SDS011;26912;54.292;18.574;2022-10-17T16:06:16;6.15;;;3.90;;
41177;SDS011;26912;54.292;18.574;2022-10-17T16:08:44;8.95;;;4.18;;
41177;SDS011;26912;54.292;18.574;2022-10-17T16:11:28;4.57;;;2.95;;
41177;SDS011;26912;54.292;18.574;2022-10-17T16:13:58;5.25;;;3.17;;
41177;SDS011;26912;54.292;18.574;2022-10-17T16:16:26;7.68;;;4.00;;
41177;SDS011;26912;54.292;18.574;2022-10-17T16:18:53;5.10;;;3.40;;
41177;SDS011;26912;54.292;18.574;2022-10-17T16:21:21;7.82;;;4.40;;
41177;SDS011;26912;54.292;18.574;2022-10-17T16:23:51;6.97;;;3.70;;
41177;SDS011;26912;54.292;18.574;2022-10-17T16:26:18;11.95;;;5.22;;
41177;SDS011;26912;54.292;18.574;2022-10-17T16:28:45;5.55;;;3.75;;
41177;SDS011;26912;54.292;18.574;2022-10-17T16:31:21;9.50;;;5.10;;
41177;SDS011;26912;54.292;18.574;2022-10-17T16:33:51;10.35;;;5.43;;
41177;SDS011;26912;54.292;18.574;2022-10-17T16:36:19;9.25;;;5.03;;
41177;SDS011;26912;54.292;18.574;2022-10-17T16:38:47;6.75;;;4.38;;
41177;SDS011;26912;54.292;18.574;2022-10-17T16:41:24;6.93;;;4.53;;
41177;SDS011;26912;54.292;18.574;2022-10-17T16:44:03;8.48;;;4.57;;
41177;SDS011;26912;54.292;18.574;2022-10-17T16:46:32;10.27;;;5.38;;
41177;SDS011;26912;54.292;18.574;2022-10-17T16:49:02;6.10;;;4.18;;
41177;SDS011;26912;54.292;18.574;2022-10-17T16:51:29;7.60;;;5.28;;
41177;SDS011;26912;54.292;18.574;2022-10-17T16:53:58;10.40;;;5.95;;
41177;SDS011;26912;54.292;18.574;2022-10-17T16:56:25;7.10;;;5.40;;
41177;SDS011;26912;54.292;18.574;2022-10-17T16:58:55;9.02;;;6.05;;
41177;SDS011;26912;54.292;18.574;2022-10-17T17:01:22;9.05;;;5.03;;
41177;SDS011;26912;54.292;18.574;2022-10-17T17:03:50;7.45;;;5.47;;
41177;SDS011;26912;54.292;18.574;2022-10-17T17:06:19;12.15;;;5.57;;
41177;SDS011;26912;54.292;18.574;2022-10-17T17:08:48;8.57;;;4.88;;
41177;SDS011;26912;54.292;18.574;2022-10-17T17:11:15;8.70;;;5.43;;
41177;SDS011;26912;54.292;18.574;2022-10-17T17:13:43;10.50;;;6.28;;
41177;SDS011;26912;54.292;18.574;2022-10-17T17:16:11;10.73;;;6.03;;
41177;SDS011;26912;54.292;18.574;2022-10-17T17:18:43;7.68;;;4.95;;
41177;SDS011;26912;54.292;18.574;2022-10-17T17:21:12;9.00;;;4.75;;
41177;SDS011;26912;54.292;18.574;2022-10-17T17:23:39;9.60;;;5.50;;
41177;SDS011;26912;54.292;18.574;2022-10-17T17:26:09;10.43;;;5.90;;